sensor_id;sensor_type;location;lat;lon;timestamp;P1;durP1;ratioP1;P2;durP2;ratioP2
18376;SDS011;9315;52.624;13.544;2023-04-03T00:01:20;6.43;;;1.03;;
18376;SDS011;9315;52.624;13.544;2023-04-03T00:03:48;3.77;;;1.00;;
18376;SDS011;9315;52.624;13.544;2023-04-03T00:06:16;6.77;;;1.13;;
18376;SDS011;9315;52.624;13.544;2023-04-03T00:08:43;5.60;;;0.73;;
18376;SDS011;9315;52.624;13.544;2023-04-03T00:11:11;8.37;;;1.30;;
18376;SDS011;9315;52.624;13.544;2023-04-03T00:13:38;4.07;;;1.07;;
18376;SDS011;9315;52.624;13.544;2023-04-03T00:16:06;3.27;;;0.77;;
18376;SDS011;9315;52.624;13.544;2023-04-03T00:18:36;3.90;;;0.80;;
18376;SDS011;9315;52.624;13.544;2023-04-03T00:21:05;3.07;;;1.00;;
18376;SDS011;9315;52.624;13.544;2023-04-03T00:23:33;7.40;;;1.20;;
18376;SDS011;9315;52.624;13.544;2023-04-03T00:26:01;4.63;;;1.07;;
18376;SDS011;9315;52.624;13.544;2023-04-03T00:28:28;5.07;;;1.00;;
18376;SDS011;9315;52.624;13.544;2023-04-03T00:30:55;3.53;;;1.13;;
18376;SDS011;9315;52.624;13.544;2023-04-03T00:33:23;5.27;;;0.90;;
18376;SDS011;9315;52.624;13.544;2023-04-03T00:35:50;3.53;;;0.80;;
18376;SDS011;9315;52.624;13.544;2023-04-03T00:38:18;5.67;;;1.30;;
18376;SDS011;9315;52.624;13.544;2023-04-03T00:40:46;6.03;;;0.90;;
18376;SDS011;9315;52.624;13.544;2023-04-03T00:43:20;3.53;;;0.77;;
18376;SDS011;9315;52.624;13.544;2023-04-03T00:45:53;3.53;;;0.97;;
18376;SDS011;9315;52.624;13.544;2023-04-03T00:48:37;2.70;;;0.80;;
18376;SDS011;9315;52.624;13.544;2023-04-03T00:51:14;8.87;;;1.10;;
18376;SDS011;9315;52.624;13.544;2023-04-03T00:53:52;6.07;;;1.23;;
18376;SDS011;9315;52.624;13.544;2023-04-03T00:56:25;10.87;;;1.33;;
18376;SDS011;9315;52.624;13.544;2023-04-03T00:59:39;2.20;;;0.70;;
18376;SDS011;9315;52.624;13.544;2023-04-03T01:01:56;5.47;;;1.03;;
18376;SDS011;9315;52.624;13.544;2023-04-03T01:04:29;8.63;;;1.27;;
18376;SDS011;9315;52.624;13.544;2023-04-03T01:06:58;6.13;;;1.10;;
18376;SDS011;9315;52.624;13.544;2023-04-03T01:09:34;6.47;;;1.33;;
18376;SDS011;9315;52.624;13.544;2023-04-03T01:12:15;4.50;;;0.97;;
18376;SDS011;9315;52.624;13.544;2023-04-03T01:14:50;6.03;;;0.90;;
18376;SDS011;9315;52.624;13.544;2023-04-03T01:25:46;6.73;;;1.37;;
18376;SDS011;9315;52.624;13.544;2023-04-03T01:28:21;4.47;;;0.73;;
18376;SDS011;9315;52.624;13.544;2023-04-03T01:33:54;6.37;;;1.00;;
18376;SDS011;9315;52.624;13.544;2023-04-03T01:36:23;7.97;;;1.33;;
18376;SDS011;9315;52.624;13.544;2023-04-03T01:38:54;4.23;;;1.13;;
18376;SDS011;9315;52.624;13.544;2023-04-03T01:41:24;5.07;;;1.20;;
18376;SDS011;9315;52.624;13.544;2023-04-03T01:43:52;4.47;;;1.37;;
18376;SDS011;9315;52.624;13.544;2023-04-03T01:46:19;6.70;;;1.27;;
18376;SDS011;9315;52.624;13.544;2023-04-03T01:48:50;8.10;;;1.47;;
18376;SDS011;9315;52.624;13.544;2023-04-03T01:51:18;7.67;;;1.00;;
18376;SDS011;9315;52.624;13.544;2023-04-03T01:53:45;5.20;;;1.20;;
18376;SDS011;9315;52.624;13.544;2023-04-03T01:56:12;4.70;;;1.20;;
18376;SDS011;9315;52.624;13.544;2023-04-03T01:58:42;3.13;;;1.07;;
18376;SDS011;9315;52.624;13.544;2023-04-03T02:01:09;9.67;;;1.43;;
18376;SDS011;9315;52.624;13.544;2023-04-03T02:03:38;5.83;;;1.10;;
18376;SDS011;9315;52.624;13.544;2023-04-03T02:06:06;6.90;;;1.20;;
18376;SDS011;9315;52.624;13.544;2023-04-03T02:08:33;6.60;;;1.10;;
18376;SDS011;9315;52.624;13.544;2023-04-03T02:11:00;7.33;;;0.83;;
18376;SDS011;9315;52.624;13.544;2023-04-03T02:13:28;4.43;;;0.90;;
18376;SDS011;9315;52.624;13.544;2023-04-03T02:15:55;8.33;;;1.33;;
18376;SDS011;9315;52.624;13.544;2023-04-03T02:18:22;10.87;;;1.40;;
18376;SDS011;9315;52.624;13.544;2023-04-03T02:20:49;6.70;;;1.07;;
18376;SDS011;9315;52.624;13.544;2023-04-03T02:23:16;6.40;;;1.20;;
18376;SDS011;9315;52.624;13.544;2023-04-03T02:25:43;5.37;;;0.77;;
18376;SDS011;9315;52.624;13.544;2023-04-03T02:28:11;9.47;;;1.10;;
18376;SDS011;9315;52.624;13.544;2023-04-03T02:30:38;5.03;;;1.00;;
18376;SDS011;9315;52.624;13.544;2023-04-03T02:33:05;8.47;;;1.20;;
18376;SDS011;9315;52.624;13.544;2023-04-03T02:35:32;4.97;;;1.33;;
18376;SDS011;9315;52.624;13.544;2023-04-03T02:38:00;8.23;;;1.23;;
18376;SDS011;9315;52.624;13.544;2023-04-03T02:40:27;3.80;;;1.00;;
18376;SDS011;9315;52.624;13.544;2023-04-03T02:42:54;4.57;;;0.93;;
18376;SDS011;9315;52.624;13.544;2023-04-03T02:45:21;6.03;;;0.90;;
18376;SDS011;9315;52.624;13.544;2023-04-03T02:47:48;4.47;;;1.00;;
18376;SDS011;9315;52.624;13.544;2023-04-03T02:50:15;3.43;;;0.93;;
18376;SDS011;9315;52.624;13.544;2023-04-03T02:52:42;7.90;;;0.90;;
18376;SDS011;9315;52.624;13.544;2023-04-03T02:55:12;2.90;;;1.30;;
18376;SDS011;9315;52.624;13.544;2023-04-03T02:57:42;2.93;;;0.70;;
18376;SDS011;9315;52.624;13.544;2023-04-03T03:00:09;4.20;;;0.97;;
18376;SDS011;9315;52.624;13.544;2023-04-03T03:02:37;10.43;;;1.50;;
18376;SDS011;9315;52.624;13.544;2023-04-03T03:05:04;6.47;;;1.30;;
18376;SDS011;9315;52.624;13.544;2023-04-03T03:07:32;7.13;;;1.30;;
18376;SDS011;9315;52.624;13.544;2023-04-03T03:09:59;8.63;;;1.40;;
18376;SDS011;9315;52.624;13.544;2023-04-03T03:12:26;9.60;;;1.60;;
18376;SDS011;9315;52.624;13.544;2023-04-03T03:14:53;5.07;;;1.30;;
18376;SDS011;9315;52.624;13.544;2023-04-03T03:17:21;9.40;;;1.50;;
18376;SDS011;9315;52.624;13.544;2023-04-03T03:19:51;10.07;;;1.30;;
18376;SDS011;9315;52.624;13.544;2023-04-03T03:22:18;11.20;;;1.37;;
18376;SDS011;9315;52.624;13.544;2023-04-03T03:24:46;6.10;;;1.10;;
18376;SDS011;9315;52.624;13.544;2023-04-03T03:27:13;6.67;;;1.43;;
18376;SDS011;9315;52.624;13.544;2023-04-03T03:29:42;8.97;;;1.70;;
18376;SDS011;9315;52.624;13.544;2023-04-03T03:32:09;8.20;;;1.30;;
18376;SDS011;9315;52.624;13.544;2023-04-03T03:34:36;8.07;;;1.60;;
18376;SDS011;9315;52.624;13.544;2023-04-03T03:37:03;9.33;;;1.60;;
18376;SDS011;9315;52.624;13.544;2023-04-03T03:39:30;7.17;;;1.03;;
18376;SDS011;9315;52.624;13.544;2023-04-03T03:41:58;6.67;;;1.23;;
18376;SDS011;9315;52.624;13.544;2023-04-03T03:44:25;5.33;;;1.00;;
18376;SDS011;9315;52.624;13.544;2023-04-03T03:46:52;6.83;;;1.40;;
18376;SDS011;9315;52.624;13.544;2023-04-03T03:49:19;8.87;;;1.60;;
18376;SDS011;9315;52.624;13.544;2023-04-03T03:51:48;9.87;;;1.20;;
18376;SDS011;9315;52.624;13.544;2023-04-03T03:54:16;5.37;;;1.00;;
18376;SDS011;9315;52.624;13.544;2023-04-03T03:56:43;3.50;;;1.40;;
18376;SDS011;9315;52.624;13.544;2023-04-03T03:59:11;8.50;;;1.20;;
18376;SDS011;9315;52.624;13.544;2023-04-03T04:01:38;4.63;;;1.43;;
18376;SDS011;9315;52.624;13.544;2023-04-03T04:04:06;7.47;;;1.10;;
18376;SDS011;9315;52.624;13.544;2023-04-03T04:06:33;6.27;;;1.20;;
18376;SDS011;9315;52.624;13.544;2023-04-03T04:09:00;7.87;;;1.47;;
18376;SDS011;9315;52.624;13.544;2023-04-03T04:11:29;6.33;;;1.20;;
18376;SDS011;9315;52.624;13.544;2023-04-03T04:13:56;8.53;;;1.43;;
18376;SDS011;9315;52.624;13.544;2023-04-03T04:16:23;6.87;;;1.20;;
18376;SDS011;9315;52.624;13.544;2023-04-03T04:18:50;8.13;;;1.20;;
18376;SDS011;9315;52.624;13.544;2023-04-03T04:21:17;7.80;;;1.87;;
18376;SDS011;9315;52.624;13.544;2023-04-03T04:23:44;7.43;;;1.40;;
18376;SDS011;9315;52.624;13.544;2023-04-03T04:26:12;4.83;;;1.80;;
18376;SDS011;9315;52.624;13.544;2023-04-03T04:28:39;11.47;;;1.80;;
18376;SDS011;9315;52.624;13.544;2023-04-03T04:31:09;6.83;;;1.40;;
18376;SDS011;9315;52.624;13.544;2023-04-03T04:33:36;7.17;;;1.40;;
18376;SDS011;9315;52.624;13.544;2023-04-03T04:36:06;10.40;;;1.53;;
18376;SDS011;9315;52.624;13.544;2023-04-03T04:38:33;4.93;;;0.90;;
18376;SDS011;9315;52.624;13.544;2023-04-03T04:41:03;6.13;;;0.97;;
18376;SDS011;9315;52.624;13.544;2023-04-03T04:43:30;11.70;;;1.30;;
18376;SDS011;9315;52.624;13.544;2023-04-03T04:46:04;7.20;;;1.17;;
18376;SDS011;9315;52.624;13.544;2023-04-03T04:48:36;13.53;;;1.30;;
18376;SDS011;9315;52.624;13.544;2023-04-03T04:51:03;3.43;;;0.87;;
18376;SDS011;9315;52.624;13.544;2023-04-03T04:53:31;5.23;;;1.33;;
18376;SDS011;9315;52.624;13.544;2023-04-03T04:55:59;8.57;;;1.10;;
18376;SDS011;9315;52.624;13.544;2023-04-03T04:58:26;12.97;;;1.47;;
18376;SDS011;9315;52.624;13.544;2023-04-03T05:01:00;5.47;;;0.77;;
18376;SDS011;9315;52.624;13.544;2023-04-03T05:03:34;7.93;;;1.10;;
18376;SDS011;9315;52.624;13.544;2023-04-03T05:06:02;5.30;;;1.00;;
18376;SDS011;9315;52.624;13.544;2023-04-03T05:08:30;6.17;;;0.87;;
18376;SDS011;9315;52.624;13.544;2023-04-03T05:10:59;5.30;;;1.00;;
18376;SDS011;9315;52.624;13.544;2023-04-03T05:13:27;4.67;;;0.80;;
18376;SDS011;9315;52.624;13.544;2023-04-03T05:15:54;6.40;;;1.10;;
18376;SDS011;9315;52.624;13.544;2023-04-03T05:18:21;5.87;;;1.10;;
18376;SDS011;9315;52.624;13.544;2023-04-03T05:20:49;9.00;;;1.40;;
18376;SDS011;9315;52.624;13.544;2023-04-03T05:23:19;8.43;;;2.13;;
18376;SDS011;9315;52.624;13.544;2023-04-03T05:25:46;6.73;;;1.43;;
18376;SDS011;9315;52.624;13.544;2023-04-03T05:28:14;8.43;;;1.67;;
18376;SDS011;9315;52.624;13.544;2023-04-03T05:30:42;9.27;;;1.60;;
18376;SDS011;9315;52.624;13.544;2023-04-03T05:33:09;11.43;;;2.27;;
18376;SDS011;9315;52.624;13.544;2023-04-03T05:35:36;7.90;;;1.23;;
18376;SDS011;9315;52.624;13.544;2023-04-03T05:38:07;6.30;;;1.70;;
18376;SDS011;9315;52.624;13.544;2023-04-03T05:40:35;4.90;;;1.20;;
18376;SDS011;9315;52.624;13.544;2023-04-03T05:43:02;6.13;;;1.33;;
18376;SDS011;9315;52.624;13.544;2023-04-03T05:45:29;4.83;;;1.10;;
18376;SDS011;9315;52.624;13.544;2023-04-03T05:47:57;5.67;;;1.13;;
18376;SDS011;9315;52.624;13.544;2023-04-03T05:50:24;3.83;;;0.60;;
18376;SDS011;9315;52.624;13.544;2023-04-03T05:52:51;4.47;;;0.90;;
18376;SDS011;9315;52.624;13.544;2023-04-03T05:55:22;5.73;;;1.17;;
18376;SDS011;9315;52.624;13.544;2023-04-03T05:57:49;8.50;;;1.20;;
18376;SDS011;9315;52.624;13.544;2023-04-03T06:00:16;7.50;;;0.77;;
18376;SDS011;9315;52.624;13.544;2023-04-03T06:02:45;5.10;;;1.00;;
18376;SDS011;9315;52.624;13.544;2023-04-03T06:05:12;9.00;;;1.20;;
18376;SDS011;9315;52.624;13.544;2023-04-03T06:07:40;6.17;;;1.20;;
18376;SDS011;9315;52.624;13.544;2023-04-03T06:10:08;4.63;;;0.90;;
18376;SDS011;9315;52.624;13.544;2023-04-03T06:12:38;5.60;;;1.00;;
18376;SDS011;9315;52.624;13.544;2023-04-03T06:15:05;5.27;;;0.87;;
18376;SDS011;9315;52.624;13.544;2023-04-03T06:17:36;4.80;;;1.00;;
18376;SDS011;9315;52.624;13.544;2023-04-03T06:20:04;4.50;;;1.17;;
18376;SDS011;9315;52.624;13.544;2023-04-03T06:22:32;5.40;;;0.90;;
18376;SDS011;9315;52.624;13.544;2023-04-03T06:24:59;5.33;;;1.20;;
18376;SDS011;9315;52.624;13.544;2023-04-03T06:27:29;4.67;;;1.17;;
18376;SDS011;9315;52.624;13.544;2023-04-03T06:29:56;4.00;;;0.90;;
18376;SDS011;9315;52.624;13.544;2023-04-03T06:32:23;5.87;;;1.17;;
18376;SDS011;9315;52.624;13.544;2023-04-03T06:34:51;4.23;;;1.10;;
18376;SDS011;9315;52.624;13.544;2023-04-03T06:37:20;9.33;;;1.27;;
18376;SDS011;9315;52.624;13.544;2023-04-03T06:39:49;3.30;;;1.00;;
18376;SDS011;9315;52.624;13.544;2023-04-03T06:42:16;4.17;;;0.90;;
18376;SDS011;9315;52.624;13.544;2023-04-03T06:44:43;4.47;;;1.00;;
18376;SDS011;9315;52.624;13.544;2023-04-03T06:47:11;4.63;;;0.80;;
18376;SDS011;9315;52.624;13.544;2023-04-03T06:49:41;3.77;;;0.70;;
18376;SDS011;9315;52.624;13.544;2023-04-03T06:52:10;8.80;;;1.77;;
18376;SDS011;9315;52.624;13.544;2023-04-03T06:54:38;6.97;;;1.20;;
18376;SDS011;9315;52.624;13.544;2023-04-03T06:57:07;5.80;;;1.00;;
18376;SDS011;9315;52.624;13.544;2023-04-03T06:59:34;5.00;;;1.23;;
18376;SDS011;9315;52.624;13.544;2023-04-03T07:02:02;8.57;;;0.80;;
18376;SDS011;9315;52.624;13.544;2023-04-03T07:04:30;7.47;;;0.70;;
18376;SDS011;9315;52.624;13.544;2023-04-03T07:06:57;4.37;;;0.73;;
18376;SDS011;9315;52.624;13.544;2023-04-03T07:09:25;6.43;;;0.83;;
18376;SDS011;9315;52.624;13.544;2023-04-03T07:11:52;4.40;;;0.90;;
18376;SDS011;9315;52.624;13.544;2023-04-03T07:14:19;4.70;;;0.70;;
18376;SDS011;9315;52.624;13.544;2023-04-03T07:16:47;4.73;;;0.60;;
18376;SDS011;9315;52.624;13.544;2023-04-03T07:19:14;3.33;;;0.70;;
18376;SDS011;9315;52.624;13.544;2023-04-03T07:21:41;5.97;;;0.80;;
18376;SDS011;9315;52.624;13.544;2023-04-03T07:24:09;6.60;;;0.77;;
18376;SDS011;9315;52.624;13.544;2023-04-03T07:26:41;2.97;;;0.80;;
18376;SDS011;9315;52.624;13.544;2023-04-03T07:29:09;2.37;;;0.70;;
18376;SDS011;9315;52.624;13.544;2023-04-03T07:31:38;7.13;;;1.03;;
18376;SDS011;9315;52.624;13.544;2023-04-03T07:34:07;2.70;;;0.50;;
18376;SDS011;9315;52.624;13.544;2023-04-03T07:36:35;2.80;;;0.53;;
18376;SDS011;9315;52.624;13.544;2023-04-03T07:39:04;2.07;;;0.53;;
18376;SDS011;9315;52.624;13.544;2023-04-03T07:41:33;4.30;;;0.67;;
18376;SDS011;9315;52.624;13.544;2023-04-03T07:44:00;3.50;;;0.67;;
18376;SDS011;9315;52.624;13.544;2023-04-03T07:46:27;3.00;;;0.77;;
18376;SDS011;9315;52.624;13.544;2023-04-03T07:48:54;2.20;;;0.47;;
18376;SDS011;9315;52.624;13.544;2023-04-03T07:51:23;3.03;;;0.60;;
18376;SDS011;9315;52.624;13.544;2023-04-03T07:53:52;4.77;;;0.60;;
18376;SDS011;9315;52.624;13.544;2023-04-03T07:56:20;3.47;;;0.50;;
18376;SDS011;9315;52.624;13.544;2023-04-03T07:58:47;2.33;;;0.70;;
18376;SDS011;9315;52.624;13.544;2023-04-03T08:01:14;2.83;;;0.70;;
18376;SDS011;9315;52.624;13.544;2023-04-03T08:03:41;3.40;;;0.60;;
18376;SDS011;9315;52.624;13.544;2023-04-03T08:06:09;5.13;;;1.13;;
18376;SDS011;9315;52.624;13.544;2023-04-03T08:08:41;3.63;;;0.57;;
18376;SDS011;9315;52.624;13.544;2023-04-03T08:11:09;5.03;;;0.83;;
18376;SDS011;9315;52.624;13.544;2023-04-03T08:13:37;6.40;;;1.70;;
18376;SDS011;9315;52.624;13.544;2023-04-03T08:16:11;5.57;;;0.83;;
18376;SDS011;9315;52.624;13.544;2023-04-03T08:18:44;2.67;;;0.50;;
18376;SDS011;9315;52.624;13.544;2023-04-03T08:21:11;5.50;;;0.90;;
18376;SDS011;9315;52.624;13.544;2023-04-03T08:23:39;2.30;;;0.70;;
18376;SDS011;9315;52.624;13.544;2023-04-03T08:26:08;1.17;;;0.40;;
18376;SDS011;9315;52.624;13.544;2023-04-03T08:28:42;2.30;;;0.50;;
18376;SDS011;9315;52.624;13.544;2023-04-03T08:31:12;2.63;;;0.70;;
18376;SDS011;9315;52.624;13.544;2023-04-03T08:33:45;1.53;;;0.60;;
18376;SDS011;9315;52.624;13.544;2023-04-03T08:36:21;5.73;;;0.73;;
18376;SDS011;9315;52.624;13.544;2023-04-03T08:38:53;2.87;;;0.70;;
18376;SDS011;9315;52.624;13.544;2023-04-03T08:41:32;3.40;;;0.53;;
18376;SDS011;9315;52.624;13.544;2023-04-03T08:44:30;3.37;;;0.60;;
18376;SDS011;9315;52.624;13.544;2023-04-03T08:47:55;2.37;;;0.63;;
18376;SDS011;9315;52.624;13.544;2023-04-03T08:50:35;2.23;;;0.50;;
18376;SDS011;9315;52.624;13.544;2023-04-03T08:53:13;7.13;;;0.70;;
18376;SDS011;9315;52.624;13.544;2023-04-03T08:55:57;4.80;;;1.10;;
18376;SDS011;9315;52.624;13.544;2023-04-03T08:58:29;4.80;;;0.50;;
18376;SDS011;9315;52.624;13.544;2023-04-03T09:01:29;2.47;;;0.43;;
18376;SDS011;9315;52.624;13.544;2023-04-03T09:04:16;1.70;;;0.47;;
18376;SDS011;9315;52.624;13.544;2023-04-03T09:06:45;0.73;;;0.40;;
18376;SDS011;9315;52.624;13.544;2023-04-03T09:18:05;1.20;;;0.40;;
18376;SDS011;9315;52.624;13.544;2023-04-03T09:20:58;5.27;;;0.70;;
18376;SDS011;9315;52.624;13.544;2023-04-03T09:23:51;5.53;;;0.77;;
18376;SDS011;9315;52.624;13.544;2023-04-03T09:26:25;4.87;;;0.80;;
18376;SDS011;9315;52.624;13.544;2023-04-03T09:29:00;5.43;;;1.07;;
18376;SDS011;9315;52.624;13.544;2023-04-03T09:31:37;2.70;;;0.50;;
18376;SDS011;9315;52.624;13.544;2023-04-03T09:34:43;4.10;;;0.60;;
18376;SDS011;9315;52.624;13.544;2023-04-03T09:37:04;2.53;;;0.70;;
18376;SDS011;9315;52.624;13.544;2023-04-03T09:39:33;0.97;;;0.50;;
18376;SDS011;9315;52.624;13.544;2023-04-03T09:42:21;2.20;;;0.40;;
18376;SDS011;9315;52.624;13.544;2023-04-03T09:45:00;4.33;;;0.43;;
18376;SDS011;9315;52.624;13.544;2023-04-03T09:47:32;3.30;;;0.70;;
18376;SDS011;9315;52.624;13.544;2023-04-03T09:52:50;3.33;;;0.60;;
18376;SDS011;9315;52.624;13.544;2023-04-03T09:55:19;5.23;;;0.80;;
18376;SDS011;9315;52.624;13.544;2023-04-03T09:57:55;3.27;;;0.50;;
18376;SDS011;9315;52.624;13.544;2023-04-03T10:00:53;2.10;;;0.57;;
18376;SDS011;9315;52.624;13.544;2023-04-03T10:03:28;2.30;;;0.60;;
18376;SDS011;9315;52.624;13.544;2023-04-03T10:06:03;2.70;;;0.60;;
18376;SDS011;9315;52.624;13.544;2023-04-03T10:08:58;1.23;;;0.63;;
18376;SDS011;9315;52.624;13.544;2023-04-03T10:11:57;0.47;;;0.30;;
18376;SDS011;9315;52.624;13.544;2023-04-03T10:14:53;4.73;;;0.50;;
18376;SDS011;9315;52.624;13.544;2023-04-03T10:20:43;1.93;;;0.77;;
18376;SDS011;9315;52.624;13.544;2023-04-03T10:48:16;2.00;;;0.40;;
18376;SDS011;9315;52.624;13.544;2023-04-03T10:58:03;1.10;;;0.50;;
18376;SDS011;9315;52.624;13.544;2023-04-03T11:00:40;2.73;;;0.50;;
18376;SDS011;9315;52.624;13.544;2023-04-03T11:03:16;1.03;;;0.40;;
18376;SDS011;9315;52.624;13.544;2023-04-03T11:06:10;3.90;;;0.60;;
18376;SDS011;9315;52.624;13.544;2023-04-03T11:08:45;2.87;;;0.57;;
18376;SDS011;9315;52.624;13.544;2023-04-03T11:11:38;1.93;;;0.60;;
18376;SDS011;9315;52.624;13.544;2023-04-03T11:14:25;5.70;;;0.70;;
18376;SDS011;9315;52.624;13.544;2023-04-03T11:25:40;1.30;;;0.43;;
18376;SDS011;9315;52.624;13.544;2023-04-03T11:28:12;1.50;;;0.60;;
18376;SDS011;9315;52.624;13.544;2023-04-03T11:37:00;2.77;;;0.70;;
18376;SDS011;9315;52.624;13.544;2023-04-03T11:39:33;1.10;;;0.50;;
18376;SDS011;9315;52.624;13.544;2023-04-03T11:42:12;1.67;;;0.40;;
18376;SDS011;9315;52.624;13.544;2023-04-03T11:45:46;2.20;;;0.60;;
18376;SDS011;9315;52.624;13.544;2023-04-03T11:50:58;1.60;;;0.67;;
18376;SDS011;9315;52.624;13.544;2023-04-03T11:53:38;2.90;;;0.50;;
18376;SDS011;9315;52.624;13.544;2023-04-03T12:01:55;1.43;;;0.77;;
18376;SDS011;9315;52.624;13.544;2023-04-03T12:04:29;3.03;;;0.63;;
18376;SDS011;9315;52.624;13.544;2023-04-03T12:07:01;4.87;;;0.93;;
18376;SDS011;9315;52.624;13.544;2023-04-03T12:12:28;3.50;;;0.90;;
18376;SDS011;9315;52.624;13.544;2023-04-03T12:15:12;3.33;;;0.70;;
18376;SDS011;9315;52.624;13.544;2023-04-03T12:27:11;6.10;;;2.03;;
18376;SDS011;9315;52.624;13.544;2023-04-03T12:30:12;6.03;;;5.43;;
18376;SDS011;9315;52.624;13.544;2023-04-03T12:39:52;3.10;;;0.50;;
18376;SDS011;9315;52.624;13.544;2023-04-03T12:42:47;2.17;;;0.60;;
18376;SDS011;9315;52.624;13.544;2023-04-03T12:45:44;2.40;;;0.57;;
18376;SDS011;9315;52.624;13.544;2023-04-03T12:48:31;1.50;;;0.80;;
18376;SDS011;9315;52.624;13.544;2023-04-03T12:54:13;1.67;;;0.90;;
18376;SDS011;9315;52.624;13.544;2023-04-03T12:57:09;2.87;;;0.60;;
18376;SDS011;9315;52.624;13.544;2023-04-03T12:59:50;1.27;;;0.50;;
18376;SDS011;9315;52.624;13.544;2023-04-03T13:05:05;2.87;;;0.50;;
18376;SDS011;9315;52.624;13.544;2023-04-03T13:07:39;2.27;;;0.70;;
18376;SDS011;9315;52.624;13.544;2023-04-03T13:12:46;3.23;;;0.90;;
18376;SDS011;9315;52.624;13.544;2023-04-03T13:15:41;2.63;;;0.50;;
18376;SDS011;9315;52.624;13.544;2023-04-03T13:18:48;1.10;;;0.40;;
18376;SDS011;9315;52.624;13.544;2023-04-03T13:21:15;2.20;;;0.40;;
18376;SDS011;9315;52.624;13.544;2023-04-03T13:23:52;3.83;;;0.90;;
18376;SDS011;9315;52.624;13.544;2023-04-03T13:26:40;2.90;;;0.57;;
18376;SDS011;9315;52.624;13.544;2023-04-03T13:29:31;2.17;;;0.87;;
18376;SDS011;9315;52.624;13.544;2023-04-03T13:32:03;2.23;;;0.53;;
18376;SDS011;9315;52.624;13.544;2023-04-03T13:34:44;1.33;;;0.40;;
18376;SDS011;9315;52.624;13.544;2023-04-03T13:37:22;2.70;;;0.50;;
18376;SDS011;9315;52.624;13.544;2023-04-03T13:42:33;2.13;;;0.60;;
18376;SDS011;9315;52.624;13.544;2023-04-03T13:51:37;3.13;;;0.97;;
18376;SDS011;9315;52.624;13.544;2023-04-03T13:53:53;1.83;;;0.43;;
18376;SDS011;9315;52.624;13.544;2023-04-03T13:56:31;3.93;;;0.50;;
18376;SDS011;9315;52.624;13.544;2023-04-03T13:59:18;2.40;;;0.60;;
18376;SDS011;9315;52.624;13.544;2023-04-03T14:04:33;2.97;;;0.70;;
18376;SDS011;9315;52.624;13.544;2023-04-03T14:07:14;2.47;;;0.80;;
18376;SDS011;9315;52.624;13.544;2023-04-03T14:09:44;2.33;;;0.60;;
18376;SDS011;9315;52.624;13.544;2023-04-03T14:12:21;5.00;;;0.93;;
18376;SDS011;9315;52.624;13.544;2023-04-03T14:15:28;3.47;;;0.67;;
18376;SDS011;9315;52.624;13.544;2023-04-03T14:17:57;3.70;;;0.77;;
18376;SDS011;9315;52.624;13.544;2023-04-03T14:20:28;2.47;;;0.87;;
18376;SDS011;9315;52.624;13.544;2023-04-03T14:22:58;5.93;;;1.57;;
18376;SDS011;9315;52.624;13.544;2023-04-03T14:25:26;8.97;;;2.30;;
18376;SDS011;9315;52.624;13.544;2023-04-03T14:27:54;8.90;;;1.30;;
18376;SDS011;9315;52.624;13.544;2023-04-03T14:32:54;3.73;;;0.60;;
18376;SDS011;9315;52.624;13.544;2023-04-03T14:35:22;4.13;;;1.37;;
18376;SDS011;9315;52.624;13.544;2023-04-03T14:37:49;4.07;;;1.00;;
18376;SDS011;9315;52.624;13.544;2023-04-03T14:40:22;3.50;;;1.20;;
18376;SDS011;9315;52.624;13.544;2023-04-03T14:42:55;3.50;;;1.50;;
18376;SDS011;9315;52.624;13.544;2023-04-03T14:45:26;6.43;;;1.87;;
18376;SDS011;9315;52.624;13.544;2023-04-03T14:47:56;3.20;;;0.73;;
18376;SDS011;9315;52.624;13.544;2023-04-03T14:50:26;3.30;;;0.70;;
18376;SDS011;9315;52.624;13.544;2023-04-03T14:52:54;1.83;;;0.63;;
18376;SDS011;9315;52.624;13.544;2023-04-03T14:55:26;5.93;;;0.70;;
18376;SDS011;9315;52.624;13.544;2023-04-03T14:57:54;1.97;;;0.40;;
18376;SDS011;9315;52.624;13.544;2023-04-03T15:00:24;4.03;;;1.13;;
18376;SDS011;9315;52.624;13.544;2023-04-03T15:02:51;4.80;;;1.40;;
18376;SDS011;9315;52.624;13.544;2023-04-03T15:05:19;5.80;;;1.00;;
18376;SDS011;9315;52.624;13.544;2023-04-03T15:07:50;5.10;;;0.60;;
18376;SDS011;9315;52.624;13.544;2023-04-03T15:12:52;6.27;;;0.63;;
18376;SDS011;9315;52.624;13.544;2023-04-03T15:15:22;2.87;;;0.77;;
18376;SDS011;9315;52.624;13.544;2023-04-03T15:17:52;3.23;;;0.83;;
18376;SDS011;9315;52.624;13.544;2023-04-03T15:20:25;4.33;;;0.70;;
18376;SDS011;9315;52.624;13.544;2023-04-03T15:22:59;7.63;;;3.40;;
18376;SDS011;9315;52.624;13.544;2023-04-03T15:25:27;69.13;;;29.07;;
18376;SDS011;9315;52.624;13.544;2023-04-03T15:27:56;52.73;;;22.17;;
18376;SDS011;9315;52.624;13.544;2023-04-03T15:30:23;33.50;;;14.10;;
18376;SDS011;9315;52.624;13.544;2023-04-03T15:32:51;5.40;;;1.60;;
18376;SDS011;9315;52.624;13.544;2023-04-03T15:35:19;7.13;;;3.20;;
18376;SDS011;9315;52.624;13.544;2023-04-03T15:37:46;10.53;;;5.93;;
18376;SDS011;9315;52.624;13.544;2023-04-03T15:40:14;5.33;;;2.43;;
18376;SDS011;9315;52.624;13.544;2023-04-03T15:42:41;5.47;;;1.77;;
18376;SDS011;9315;52.624;13.544;2023-04-03T15:45:09;2.67;;;0.93;;
18376;SDS011;9315;52.624;13.544;2023-04-03T15:47:36;3.03;;;1.10;;
18376;SDS011;9315;52.624;13.544;2023-04-03T15:50:04;5.37;;;1.47;;
18376;SDS011;9315;52.624;13.544;2023-04-03T15:52:34;6.30;;;1.20;;
18376;SDS011;9315;52.624;13.544;2023-04-03T15:55:02;6.13;;;1.30;;
18376;SDS011;9315;52.624;13.544;2023-04-03T15:57:30;3.33;;;1.00;;
18376;SDS011;9315;52.624;13.544;2023-04-03T16:00:03;4.13;;;1.07;;
18376;SDS011;9315;52.624;13.544;2023-04-03T16:02:32;7.37;;;0.90;;
18376;SDS011;9315;52.624;13.544;2023-04-03T16:05:00;1.50;;;0.60;;
18376;SDS011;9315;52.624;13.544;2023-04-03T16:07:28;5.80;;;2.13;;
18376;SDS011;9315;52.624;13.544;2023-04-03T16:09:55;4.23;;;1.03;;
18376;SDS011;9315;52.624;13.544;2023-04-03T16:12:22;2.73;;;0.53;;
18376;SDS011;9315;52.624;13.544;2023-04-03T16:14:49;3.73;;;0.60;;
18376;SDS011;9315;52.624;13.544;2023-04-03T16:17:17;2.77;;;0.60;;
18376;SDS011;9315;52.624;13.544;2023-04-03T16:19:44;3.73;;;1.03;;
18376;SDS011;9315;52.624;13.544;2023-04-03T16:22:12;4.30;;;0.90;;
18376;SDS011;9315;52.624;13.544;2023-04-03T16:24:41;3.47;;;1.23;;
18376;SDS011;9315;52.624;13.544;2023-04-03T16:27:08;3.13;;;1.20;;
18376;SDS011;9315;52.624;13.544;2023-04-03T16:29:35;3.07;;;0.63;;
18376;SDS011;9315;52.624;13.544;2023-04-03T16:32:03;8.20;;;1.10;;
18376;SDS011;9315;52.624;13.544;2023-04-03T16:34:30;3.43;;;0.97;;
18376;SDS011;9315;52.624;13.544;2023-04-03T16:36:59;4.80;;;0.67;;
18376;SDS011;9315;52.624;13.544;2023-04-03T16:39:28;3.63;;;0.77;;
18376;SDS011;9315;52.624;13.544;2023-04-03T16:41:55;3.70;;;0.97;;
18376;SDS011;9315;52.624;13.544;2023-04-03T16:44:22;4.00;;;0.77;;
18376;SDS011;9315;52.624;13.544;2023-04-03T16:46:49;4.03;;;1.00;;
18376;SDS011;9315;52.624;13.544;2023-04-03T16:49:17;3.97;;;0.90;;
18376;SDS011;9315;52.624;13.544;2023-04-03T16:51:44;5.47;;;1.10;;
18376;SDS011;9315;52.624;13.544;2023-04-03T16:54:11;2.80;;;0.77;;
18376;SDS011;9315;52.624;13.544;2023-04-03T16:56:39;4.63;;;0.80;;
18376;SDS011;9315;52.624;13.544;2023-04-03T16:59:08;6.27;;;1.10;;
18376;SDS011;9315;52.624;13.544;2023-04-03T17:01:35;5.03;;;0.80;;
18376;SDS011;9315;52.624;13.544;2023-04-03T17:04:03;14.47;;;3.30;;
18376;SDS011;9315;52.624;13.544;2023-04-03T17:06:33;2.93;;;0.70;;
18376;SDS011;9315;52.624;13.544;2023-04-03T17:09:01;5.57;;;1.40;;
18376;SDS011;9315;52.624;13.544;2023-04-03T17:11:29;5.63;;;0.90;;
18376;SDS011;9315;52.624;13.544;2023-04-03T17:13:57;6.67;;;0.90;;
18376;SDS011;9315;52.624;13.544;2023-04-03T17:16:25;3.43;;;1.50;;
18376;SDS011;9315;52.624;13.544;2023-04-03T17:18:55;4.40;;;0.90;;
18376;SDS011;9315;52.624;13.544;2023-04-03T17:21:22;5.67;;;1.37;;